Messwerte Buckland

Temperatur

Temperatur
°C
1576213200 20.00 20.00 -11
1576216800 21.00 21.00 -11
1576220400 22.00 22.00 -9
1576224000 23.00 23.00 -9
1576227600 0.00 0.00 -13
1576231200 1.00 1.00 -13
1576234800 2.00 2.00 -14
1576238400 3.00 3.00 -10
1576242000 4.00 4.00 -11
1576245600 5.00 5.00
1576249200 6.00 6.00 -11
1576252800 7.00 7.00 -13
1576256400 8.00 8.00 -15
1576260000 9.00 9.00 -14
1576263600 10.00 10.00 -12
1576267200 11.00 11.00
1576270800 12.00 12.00 -11
1576274400 13.00 13.00 -10
1576278000 14.00 14.00 -11
1576281600 15.00 15.00 -11
1576285200 16.00 16.00 -10
1576288800 17.00 17.00 -11
1576292400 18.00 18.00 -11
1576296000 19.00 19.00 -12

Aktuellste Messwerte

Wettercharakter
Wetter: klar
Temperatur
-11 °C
Feuchtigkeit
85 %
Wind
20 km/hWindrichtung: Süd
Böen
30 km/h
Luftdruck
1001 hPa
Messzeit: 13. Dezember 2019, 20.00Datenquelle: METAR

Weitere Messstationen in der Nähe

Messstation Temperatur Entfernung
Selawik -12 °C 88 km
Koyuk, Koyuk Airport -7 °C 117 km
Kotzebue -9 °C 121 km
Ambler -7 °C 192 km
Noatak -9 °C 194 km
Kaltag -17 °C 216 km
Huslia -9 °C 220 km

Wind

Windrichtung Böen Mittelwind
° km/h km/h
1576213200 20.00 19.00 - 20.00 120° 10
1576216800 21.00 20.00 - 21.00 160° 15
1576220400 22.00 21.00 - 22.00 170° 15
1576224000 23.00 22.00 - 23.00 180° 10
1576227600 0.00 23.00 - 0.00 140° 5
1576231200 1.00 0.00 - 1.00 5
1576234800 2.00 1.00 - 2.00 180° 10
1576238400 3.00 2.00 - 3.00 150° 5
1576242000 4.00 3.00 - 4.00 180° 15
1576245600 5.00 4.00 - 5.00
1576249200 6.00 5.00 - 6.00 120° 15
1576252800 7.00 6.00 - 7.00 130° 20
1576256400 8.00 7.00 - 8.00 130° 15
1576260000 9.00 8.00 - 9.00 160° 10
1576263600 10.00 9.00 - 10.00 160° 30 20
1576267200 11.00 10.00 - 11.00
1576270800 12.00 11.00 - 12.00 150° 10
1576274400 13.00 12.00 - 13.00 120° 20
1576278000 14.00 13.00 - 14.00 110° 40 30
1576281600 15.00 14.00 - 15.00 130° 35 20
1576285200 16.00 15.00 - 16.00 160° 45 25
1576288800 17.00 16.00 - 17.00 200° 10
1576292400 18.00 17.00 - 18.00 110° 25
1576296000 19.00 18.00 - 19.00 10

Ihre Wetterstation

Fehlt Ihre Wetterstation auf unserem Portal?

Schreiben Sie an network@meteonews.ch

Klima

Wann ist es am wärmsten? Wann regnet es am wenigsten? Unsere Klimadaten geben Auskunft.